Posh Pelican — 9V7602 — position and weather

sailwx.info

Track history (hours):
 
Tides and Currents Weather Stations Pressure Air Temp Water Temp Dewpoint Dewpoint Depression Visibility Wind Speed Wind Dir Waves Ship Positions

Posh Pelican

Last reported at 2017-Sep-22 01:31 UTC. Time now 2017-Sep-22 02:43 UTC.
Position S 04°55' E 011°34'.

Length 79 m; draft 5.6 m.

Type: Tug. MMSI: 563712000.

Date/timePositionNaut miles runAvg speedWind from/ knotsBaromVisibWave heightAir tempDewpointWater temp
2017-Sep-22 01:31S 04°55' E 011°34'0 7.1
2017-Sep-22 01:27S 04°56' E 011°34'3 7.2
2017-Sep-22 01:00S 04°58' E 011°32'4 7.4
2017-Sep-22 00:31S 05°02' E 011°30'4 7.4
2017-Sep-22 00:01S 05°05' E 011°29'4 7.4
2017-Sep-21 23:30S 05°08' E 011°27'4 7.2
2017-Sep-21 23:00S 05°12' E 011°26'3 6.9
2017-Sep-21 22:30S 05°15' E 011°25'3 5.7
2017-Sep-21 22:00S 05°17' E 011°23'0 0.3
2017-Sep-21 21:25S 05°17' E 011°23'0 0.0
2017-Sep-21 21:00S 05°17' E 011°23'0 0.0
2017-Sep-21 20:30S 05°17' E 011°23'0 0.0
2017-Sep-21 20:00S 05°17' E 011°23'0 0.4
2017-Sep-21 19:29S 05°17' E 011°23'0 0.0
2017-Sep-21 19:01S 05°17' E 011°23'1 2.8
2017-Sep-21 18:30S 05°17' E 011°22'3 6.4
2017-Sep-21 18:00S 05°15' E 011°20'3 5.6
2017-Sep-21 17:30S 05°13' E 011°17'0 0.3
2017-Sep-21 17:00S 05°13' E 011°17'0 0.1
2017-Sep-21 16:30S 05°13' E 011°17'0 0.1
2017-Sep-21 16:00S 05°13' E 011°17'0 0.1
2017-Sep-21 15:30S 05°13' E 011°17'0 0.1
2017-Sep-21 15:00S 05°13' E 011°17'0 0.1
2017-Sep-21 14:30S 05°13' E 011°17'0 0.1
2017-Sep-21 14:01S 05°13' E 011°17'0 0.1
2017-Sep-21 13:30S 05°13' E 011°17'0 0.4
2017-Sep-21 13:00S 05°13' E 011°17'0 0.3
2017-Sep-21 12:30S 05°13' E 011°17'0 0.1
2017-Sep-21 12:00S 05°13' E 011°17'0 0.2
2017-Sep-21 11:30S 05°13' E 011°17'0 0.2
2017-Sep-21 11:00S 05°13' E 011°17'0 0.3
2017-Sep-21 10:30S 05°13' E 011°17'0 0.3
2017-Sep-21 10:00S 05°13' E 011°17'0 0.1
2017-Sep-21 09:30S 05°13' E 011°17'0 0.1
2017-Sep-21 09:00S 05°13' E 011°17'0 0.2
2017-Sep-21 08:30S 05°13' E 011°17'0 0.2
2017-Sep-21 08:00S 05°13' E 011°17'0 0.1
2017-Sep-21 07:30S 05°14' E 011°17'0 0.1
2017-Sep-21 07:00S 05°14' E 011°17'0 0.1
2017-Sep-21 06:30S 05°14' E 011°17'0 0.1
2017-Sep-21 06:00S 05°14' E 011°17'0 0.1
2017-Sep-21 05:31S 05°14' E 011°17'0 0.4
2017-Sep-21 05:00S 05°14' E 011°17'0 0.3
2017-Sep-21 04:30S 05°14' E 011°18'0 0.1
2017-Sep-21 04:00S 05°14' E 011°18'0 0.1
2017-Sep-21 03:31S 05°14' E 011°18'0 0.1
2017-Sep-21 03:00S 05°14' E 011°18'0 0.1
2017-Sep-21 02:30S 05°13' E 011°18'0 0.1
2017-Sep-21 02:00S 05°13' E 011°18'0 0.1
2017-Sep-21 01:30S 05°13' E 011°18'0 0.1
2017-Sep-21 01:00S 05°13' E 011°18'0 0.1
2017-Sep-21 00:30S 05°13' E 011°18'0 0.1
2017-Sep-21 00:00S 05°13' E 011°18'0 0.1
2017-Sep-20 23:29S 05°13' E 011°18'0 0.1
2017-Sep-20 23:00S 05°13' E 011°18'0 0.1
2017-Sep-20 22:30S 05°13' E 011°18'0 0.1
2017-Sep-20 22:00S 05°13' E 011°18'0 0.1
2017-Sep-20 21:31S 05°13' E 011°18'0 0.1
2017-Sep-20 21:00S 05°13' E 011°18'0 0.1
2017-Sep-20 20:30S 05°14' E 011°18'0 0.0
2017-Sep-20 20:00S 05°13' E 011°18'0 0.1
2017-Sep-20 19:30S 05°14' E 011°18'0 0.3
2017-Sep-20 19:00S 05°14' E 011°18'0 0.3
2017-Sep-20 18:30S 05°14' E 011°17'0 0.3
2017-Sep-20 18:00S 05°14' E 011°17'0 0.1
2017-Sep-20 17:30S 05°14' E 011°17'0 0.5
2017-Sep-20 17:00S 05°14' E 011°18'0 0.1
2017-Sep-20 16:31S 05°14' E 011°18'0 0.1
2017-Sep-20 16:00S 05°14' E 011°18'0 0.1
2017-Sep-20 15:30S 05°14' E 011°17'0 0.3
2017-Sep-20 15:00S 05°14' E 011°17'0 0.2
2017-Sep-20 14:01S 05°13' E 011°17'0 0.1
2017-Sep-20 13:30S 05°13' E 011°17'0 0.3
2017-Sep-20 13:00S 05°13' E 011°17'0 0.2
2017-Sep-20 12:30S 05°14' E 011°17'0 0.2
2017-Sep-20 12:00S 05°14' E 011°17'0 0.1
2017-Sep-20 11:30S 05°14' E 011°17'0 0.6
2017-Sep-20 11:00S 05°13' E 011°17'0 0.6
2017-Sep-20 10:30S 05°13' E 011°17'0 0.6
2017-Sep-20 10:00S 05°13' E 011°17'0 0.4
2017-Sep-20 09:30S 05°14' E 011°17'0 0.2
2017-Sep-20 09:00S 05°14' E 011°17'0 0.2
2017-Sep-20 08:30S 05°14' E 011°17'0 0.1
2017-Sep-20 08:00S 05°14' E 011°17'0 0.1
2017-Sep-20 07:31S 05°14' E 011°17'0 0.1
2017-Sep-20 07:00S 05°14' E 011°17'0 0.2
2017-Sep-20 06:29S 05°14' E 011°17'0 0.2
2017-Sep-20 06:00S 05°14' E 011°17'0 0.1
2017-Sep-20 05:30S 05°14' E 011°17'0 0.1
2017-Sep-20 05:01S 05°14' E 011°17'0 0.2
2017-Sep-20 04:30S 05°14' E 011°18'0 0.2
2017-Sep-20 04:00S 05°14' E 011°18'0 0.2
2017-Sep-20 03:30S 05°14' E 011°18'0 0.3
2017-Sep-20 03:00S 05°14' E 011°18'0 0.2
2017-Sep-20 02:30S 05°14' E 011°18'0 0.3
2017-Sep-20 02:00S 05°14' E 011°18'0 0.3
2017-Sep-20 01:30S 05°14' E 011°18'0 0.2
2017-Sep-20 01:00S 05°14' E 011°18'0 0.1
2017-Sep-20 00:30S 05°13' E 011°18'0 0.1
2017-Sep-20 00:00S 05°13' E 011°18'0 0.0
2017-Sep-19 23:30S 05°13' E 011°18'0 0.3
2017-Sep-19 23:00S 05°13' E 011°17'0 0.3
2017-Sep-19 22:30S 05°13' E 011°17'0 0.1
2017-Sep-19 22:01S 05°13' E 011°17'0 0.2
2017-Sep-19 21:30S 05°13' E 011°17'0 0.1
2017-Sep-19 21:00S 05°13' E 011°18'0 0.1
2017-Sep-19 20:30S 05°13' E 011°18'0 0.1
2017-Sep-19 20:00S 05°13' E 011°18'0 0.1
2017-Sep-19 19:31S 05°13' E 011°18'0 0.9
2017-Sep-19 19:00S 05°13' E 011°18'0 0.3
2017-Sep-19 18:31S 05°13' E 011°18'0 0.1
2017-Sep-19 18:00S 05°13' E 011°18'0 0.5
2017-Sep-19 17:31S 05°13' E 011°18'0 0.8
2017-Sep-19 17:01S 05°12' E 011°18'0 0.4
2017-Sep-19 16:30S 05°12' E 011°18'0 0.2
2017-Sep-19 16:00S 05°12' E 011°18'0 0.9
2017-Sep-19 15:30S 05°12' E 011°18'0 0.7
2017-Sep-19 15:00S 05°12' E 011°19'0 0.1
2017-Sep-19 14:30S 05°12' E 011°19'1 1.8
2017-Sep-19 14:01S 05°12' E 011°18'0 0.7
2017-Sep-19 13:30S 05°12' E 011°18'0 0.8
2017-Sep-19 13:00S 05°12' E 011°19'0 0.3
2017-Sep-19 12:30S 05°12' E 011°19'1 2.2
2017-Sep-19 12:00S 05°12' E 011°18'0 0.9
2017-Sep-19 11:31S 05°12' E 011°18'0 0.7
2017-Sep-19 11:00S 05°12' E 011°18'0 0.1
2017-Sep-19 10:30S 05°12' E 011°18'0 0.1
2017-Sep-19 10:00S 05°12' E 011°18'0 0.0
2017-Sep-19 09:30S 05°12' E 011°18'0 0.2
2017-Sep-19 09:00S 05°12' E 011°18'0 0.2
2017-Sep-19 08:30S 05°12' E 011°18'0 0.2
2017-Sep-19 08:01S 05°12' E 011°18'0 0.1
2017-Sep-19 07:30S 05°12' E 011°18'0 0.3
2017-Sep-19 07:00S 05°12' E 011°19'2 3.7
2017-Sep-19 06:30S 05°13' E 011°17'0 0.5
2017-Sep-19 06:00S 05°13' E 011°17'0 0.2
2017-Sep-19 05:30S 05°13' E 011°17'0 0.1
2017-Sep-19 05:01S 05°13' E 011°17'0 0.1
2017-Sep-19 04:30S 05°13' E 011°17'0 0.2
2017-Sep-19 04:00S 05°13' E 011°17'0 0.2
2017-Sep-19 03:30S 05°13' E 011°17'0 0.1
2017-Sep-19 03:01S 05°13' E 011°17'0 0.2
2017-Sep-19 02:30S 05°13' E 011°17'0 0.4
2017-Sep-19 02:00S 05°13' E 011°17'0 0.5
2017-Sep-19 01:30S 05°13' E 011°17'0 0.3
2017-Sep-19 01:00S 05°13' E 011°17'0 0.6
2017-Sep-19 00:30S 05°14' E 011°18'0 0.5
2017-Sep-19 00:00S 05°14' E 011°18'0 0.1
2017-Sep-18 23:31S 05°14' E 011°18'0 0.1
2017-Sep-18 23:00S 05°14' E 011°18'0 0.3
2017-Sep-18 22:31S 05°14' E 011°18'0 0.8
2017-Sep-18 21:59S 05°13' E 011°18'0 1.1
2017-Sep-18 21:30S 05°13' E 011°19'4 6.9
2017-Sep-18 21:00S 05°14' E 011°22'3 6.5
2017-Sep-18 20:30S 05°14' E 011°26'2 3.3
2017-Sep-18 20:00S 05°13' E 011°27'0 0.5
2017-Sep-18 19:29S 05°13' E 011°27'0 0.5
2017-Sep-18 19:00S 05°13' E 011°27'0 0.5
2017-Sep-18 18:30S 05°13' E 011°27'0 0.6
2017-Sep-18 18:00S 05°14' E 011°27'0 0.7
2017-Sep-18 17:30S 05°14' E 011°27'0 0.6
2017-Sep-18 17:00S 05°14' E 011°27'0 0.6
2017-Sep-18 16:30S 05°15' E 011°27'0 0.6
2017-Sep-18 16:00S 05°15' E 011°27'0 0.6
2017-Sep-18 15:27S 05°15' E 011°27'0 1.0
2017-Sep-18 15:00S 05°15' E 011°27'4 7.2
2017-Sep-18 14:30S 05°14' E 011°23'4 8.2
2017-Sep-18 14:00S 05°13' E 011°19'1 2.5
2017-Sep-18 13:27S 05°13' E 011°18'0 0.1
2017-Sep-18 13:00S 05°13' E 011°18'0 0.0
2017-Sep-18 12:30S 05°13' E 011°18'0 0.0
2017-Sep-18 12:00S 05°13' E 011°18'0 0.0
2017-Sep-18 11:29S 05°13' E 011°18'0 0.0
2017-Sep-18 11:00S 05°13' E 011°18'0 0.0
2017-Sep-18 10:30S 05°13' E 011°18'0 0.0
2017-Sep-18 10:00S 05°13' E 011°18'0 0.0
2017-Sep-18 09:30S 05°13' E 011°18'0 0.0
2017-Sep-18 09:00S 05°13' E 011°18'0 0.0
2017-Sep-18 08:30S 05°13' E 011°18'0 0.2
2017-Sep-18 08:00S 05°13' E 011°18'0 0.6
2017-Sep-18 07:30S 05°13' E 011°18'1 1.9
2017-Sep-18 07:00S 05°13' E 011°19'0 0.7
2017-Sep-18 06:30S 05°13' E 011°19'0 0.1
2017-Sep-18 06:00S 05°14' E 011°19'0 0.1
2017-Sep-18 05:30S 05°14' E 011°19'0 0.2
2017-Sep-18 05:00S 05°14' E 011°19'0 0.1
2017-Sep-18 04:30S 05°14' E 011°19'0 0.2
2017-Sep-18 04:00S 05°14' E 011°19'0 0.3
2017-Sep-18 03:30S 05°13' E 011°19'0 0.5
2017-Sep-18 03:00S 05°13' E 011°19'0 0.1
2017-Sep-18 02:30S 05°13' E 011°19'0 0.2
2017-Sep-18 02:00S 05°13' E 011°19'0 0.1
2017-Sep-18 01:30S 05°13' E 011°19'0 0.1
2017-Sep-18 01:00S 05°13' E 011°19'0 0.2
2017-Sep-18 00:30S 05°13' E 011°19'0 0.0
2017-Sep-18 00:01S 05°13' E 011°19'0 0.0
2017-Sep-17 23:30S 05°13' E 011°19'0 0.3
2017-Sep-17 23:00S 05°13' E 011°19'0 0.2
2017-Sep-17 22:30S 05°13' E 011°19'0 0.1
2017-Sep-17 22:00S 05°13' E 011°19'0 0.1
2017-Sep-17 21:30S 05°13' E 011°19'0 0.2
2017-Sep-17 21:00S 05°13' E 011°19'0 0.1
2017-Sep-17 20:30S 05°13' E 011°19'0 0.3
2017-Sep-17 20:00S 05°13' E 011°19'0 0.2
2017-Sep-17 19:30S 05°13' E 011°19'0 0.1
2017-Sep-17 19:00S 05°13' E 011°19'0 0.1
2017-Sep-17 18:30S 05°13' E 011°19'0 0.1
2017-Sep-17 18:00S 05°13' E 011°19'0 0.1
2017-Sep-17 17:30S 05°13' E 011°19'1 1.5
2017-Sep-17 17:00S 05°12' E 011°18'0 0.8
2017-Sep-17 16:30S 05°13' E 011°18'0 0.1
2017-Sep-17 16:00S 05°13' E 011°18'0 0.0
2017-Sep-17 15:30S 05°13' E 011°18'0 0.6
2017-Sep-17 15:00S 05°12' E 011°18'1 1.7
2017-Sep-17 14:30S 05°12' E 011°19'0 0.2
2017-Sep-17 14:00S 05°12' E 011°19'0 0.4
2017-Sep-17 13:30S 05°13' E 011°19'2 4.7
2017-Sep-17 13:00S 05°14' E 011°21'3 6.4
2017-Sep-17 12:30S 05°16' E 011°23'1 1.8
2017-Sep-17 12:00S 05°17' E 011°24'0 0.0
2017-Sep-17 11:27S 05°17' E 011°24'0 0.8
2017-Sep-17 10:59S 05°17' E 011°23'0 0.0
2017-Sep-17 10:30S 05°17' E 011°23'0 0.0
2017-Sep-17 09:55S 05°17' E 011°23'0 0.0
2017-Sep-17 09:29S 05°17' E 011°23'0 0.0
2017-Sep-17 09:00S 05°17' E 011°23'0 0.1
2017-Sep-17 08:30S 05°17' E 011°23'0 0.0
2017-Sep-17 08:00S 05°17' E 011°23'0 0.1
2017-Sep-17 07:30S 05°17' E 011°23'0 0.2
2017-Sep-17 07:00S 05°17' E 011°23'1 1.7
2017-Sep-17 06:30S 05°17' E 011°24'0 0.7
2017-Sep-17 06:00S 05°17' E 011°24'0 0.6
2017-Sep-17 05:31S 05°17' E 011°24'1 1.0
2017-Sep-17 05:00S 05°17' E 011°24'3 5.9
2017-Sep-17 04:30S 05°15' E 011°22'3 6.3
2017-Sep-17 04:00S 05°13' E 011°19'1 2.3
2017-Sep-17 03:30S 05°13' E 011°18'0 0.1
2017-Sep-17 03:00S 05°13' E 011°18'0 0.1
2017-Sep-17 02:30S 05°13' E 011°18'0 0.3
2017-Sep-17 02:00S 05°13' E 011°18'0 0.3
2017-Sep-17 01:30S 05°12' E 011°18'1 2.1
2017-Sep-17 01:00S 05°11' E 011°18'4 7.1
2017-Sep-17 00:30S 05°09' E 011°20'4 7.7
2017-Sep-17 00:00S 05°06' E 011°23'4 7.7
2017-Sep-16 23:31S 05°03' E 011°26'3 0.2
2017-Sep-16 03:55S 05°00' E 011°28'3 7.6
2017-Sep-16 03:29S 05°03' E 011°26'4 7.5
2017-Sep-16 02:59S 05°06' E 011°23'4 7.4
2017-Sep-16 02:30S 05°09' E 011°21'4 7.3
2017-Sep-16 02:01S 05°12' E 011°19'1 1.5
2017-Sep-16 01:30S 05°12' E 011°19'0 0.2
2017-Sep-16 01:01S 05°12' E 011°19'0 0.6
2017-Sep-16 00:30S 05°12' E 011°19'0 0.2
2017-Sep-16 00:00S 05°12' E 011°19'0 0.2
2017-Sep-15 23:30S 05°12' E 011°19'0 0.1
2017-Sep-15 23:00S 05°12' E 011°19'0 0.2
2017-Sep-15 22:31S 05°12' E 011°19'0 0.0
2017-Sep-15 22:00S 05°12' E 011°19'0 0.1
2017-Sep-15 21:30S 05°12' E 011°19'0 0.0
2017-Sep-15 21:00S 05°12' E 011°19'0 0.2
2017-Sep-15 20:31S 05°12' E 011°19'0 0.3
2017-Sep-15 20:00S 05°12' E 011°19'0 0.3
2017-Sep-15 19:30S 05°12' E 011°19'0 0.2
2017-Sep-15 19:00S 05°12' E 011°19'0 0.0
2017-Sep-15 18:30S 05°12' E 011°19'0 0.1
2017-Sep-15 18:00S 05°12' E 011°19'0 0.0
2017-Sep-15 17:30S 05°12' E 011°19'0 0.1
2017-Sep-15 17:00S 05°12' E 011°19'0 0.0
2017-Sep-15 16:30S 05°12' E 011°19'0 0.1
2017-Sep-15 16:00S 05°12' E 011°19'0 0.1
2017-Sep-15 15:29S 05°12' E 011°19'0 0.2
2017-Sep-15 15:00S 05°12' E 011°19'0 0.1
2017-Sep-15 14:30S 05°12' E 011°19'0 0.1
2017-Sep-15 14:00S 05°12' E 011°18'0 0.0
2017-Sep-15 13:31S 05°12' E 011°18'0 0.1
2017-Sep-15 13:01S 05°12' E 011°18'0 0.3
2017-Sep-15 12:30S 05°12' E 011°18'0 0.1
2017-Sep-15 12:00S 05°12' E 011°18'0 0.3
2017-Sep-15 11:30S 05°12' E 011°19'0 0.1
2017-Sep-15 11:00S 05°12' E 011°19'0 0.2
2017-Sep-15 10:30S 05°12' E 011°19'0 0.2
2017-Sep-15 10:00S 05°12' E 011°19'0 0.3
2017-Sep-15 09:30S 05°12' E 011°19'0 0.2
2017-Sep-15 09:00S 05°12' E 011°19'0 0.3
2017-Sep-15 08:30S 05°12' E 011°19'0 0.2
2017-Sep-15 08:00S 05°12' E 011°19'0 0.2
2017-Sep-15 07:30S 05°12' E 011°19'0 0.2
2017-Sep-15 07:00S 05°12' E 011°18'0 0.2
2017-Sep-15 06:30S 05°12' E 011°18'0 0.2
2017-Sep-15 06:00S 05°12' E 011°18'0 0.0
2017-Sep-15 05:30S 05°12' E 011°18'0 0.1
2017-Sep-15 05:00S 05°12' E 011°18'0 0.2
2017-Sep-15 04:30S 05°12' E 011°18'0 0.2
2017-Sep-15 04:00S 05°12' E 011°18'0 0.1
2017-Sep-15 03:31S 05°12' E 011°18'0 0.0
2017-Sep-15 03:00S 05°12' E 011°18'0 0.1
2017-Sep-15 02:31S 05°12' E 011°18'0 0.1
2017-Sep-15 02:00S 05°12' E 011°18'0 0.0
2017-Sep-15 01:31S 05°12' E 011°18'0 0.1
2017-Sep-15 01:00S 05°12' E 011°18'0 0.1
2017-Sep-15 00:30S 05°12' E 011°18'0 0.1
2017-Sep-15 00:00S 05°12' E 011°18'0 0.1
2017-Sep-14 23:31S 05°12' E 011°18'0 0.0
2017-Sep-14 23:00S 05°12' E 011°18'0 0.2
2017-Sep-14 22:30S 05°12' E 011°18'0 0.3
2017-Sep-14 22:00S 05°12' E 011°18'0 0.4
2017-Sep-14 21:31S 05°12' E 011°18'0 0.2
2017-Sep-14 21:00S 05°12' E 011°18'0 0.1
2017-Sep-14 20:30S 05°12' E 011°18'0 0.3
2017-Sep-14 20:01S 05°12' E 011°18'0 0.3
2017-Sep-14 19:31S 05°12' E 011°18'0 0.2
2017-Sep-14 19:01S 05°12' E 011°18'0 0.5
2017-Sep-14 18:30S 05°12' E 011°18'0 0.3
2017-Sep-14 18:01S 05°12' E 011°18'0 0.4
2017-Sep-14 17:30S 05°12' E 011°18'0 0.3
2017-Sep-14 17:00S 05°12' E 011°18'0 0.4
2017-Sep-14 16:30S 05°12' E 011°18'1 1.1
2017-Sep-14 16:00S 05°13' E 011°18'0 0.0
2017-Sep-14 15:30S 05°13' E 011°18'0 0.6
2017-Sep-14 15:00S 05°12' E 011°18'0 0.8
2017-Sep-14 14:30S 05°12' E 011°18'0 0.1
2017-Sep-14 14:00S 05°12' E 011°18'0 0.1
2017-Sep-14 13:30S 05°12' E 011°19'0 0.1
2017-Sep-14 13:01S 05°12' E 011°19'0 0.1
2017-Sep-14 12:30S 05°12' E 011°19'0 0.1
2017-Sep-14 12:00S 05°12' E 011°19'0 0.2
2017-Sep-14 11:31S 05°12' E 011°19'0 0.2
2017-Sep-14 11:00S 05°12' E 011°19'0 0.1
2017-Sep-14 10:30S 05°12' E 011°19'0 0.2
2017-Sep-14 10:00S 05°12' E 011°19'0 0.1
2017-Sep-14 09:30S 05°12' E 011°19'0 0.1
2017-Sep-14 09:00S 05°12' E 011°19'0 0.2
2017-Sep-14 08:30S 05°12' E 011°19'0 0.1
2017-Sep-14 07:59S 05°12' E 011°19'0 0.2
2017-Sep-14 07:30S 05°12' E 011°19'0 0.3
2017-Sep-14 07:00S 05°12' E 011°19'0 0.2
2017-Sep-14 06:30S 05°13' E 011°19'0 0.2
2017-Sep-14 06:00S 05°13' E 011°19'0 0.3
2017-Sep-14 05:30S 05°13' E 011°19'0 0.6
2017-Sep-14 05:01S 05°13' E 011°19'0 0.9
2017-Sep-14 04:30S 05°13' E 011°19'0 0.8
2017-Sep-14 04:00S 05°14' E 011°18'0 0.1
2017-Sep-14 03:31S 05°14' E 011°18'0 0.2
2017-Sep-14 03:00S 05°14' E 011°18'0 0.3
2017-Sep-14 02:30S 05°14' E 011°18'0 0.6
2017-Sep-14 02:00S 05°13' E 011°18'0 0.7
2017-Sep-14 01:30S 05°13' E 011°18'0 0.8
2017-Sep-14 01:00S 05°13' E 011°19'0 0.4
2017-Sep-14 00:30S 05°13' E 011°19'0 0.2
2017-Sep-14 00:00S 05°13' E 011°19'0 0.1
2017-Sep-13 23:30S 05°13' E 011°19'0 0.1
2017-Sep-13 23:01S 05°13' E 011°19'0 0.3
2017-Sep-13 22:30S 05°13' E 011°19'0 0.1
2017-Sep-13 22:00S 05°12' E 011°19'0 0.1
2017-Sep-13 21:30S 05°12' E 011°19'0 0.1
2017-Sep-13 21:01S 05°12' E 011°19'0 0.2
2017-Sep-13 20:30S 05°12' E 011°19'0 0.2
2017-Sep-13 20:00S 05°12' E 011°19'0 0.1
2017-Sep-13 19:31S 05°12' E 011°19'0 0.4
2017-Sep-13 19:00S 05°12' E 011°19'0 0.4
2017-Sep-13 18:30S 05°12' E 011°18'0 0.1
2017-Sep-13 18:01S 05°12' E 011°18'0 0.3
2017-Sep-13 17:30S 05°12' E 011°18'0 0.2
2017-Sep-13 17:00S 05°12' E 011°18'0 0.2
2017-Sep-13 16:30S 05°12' E 011°18'0 0.1
2017-Sep-13 15:59S 05°12' E 011°18'0 0.1
2017-Sep-13 15:30S 05°12' E 011°18'0 0.1
2017-Sep-13 15:00S 05°12' E 011°19'0 0.0
2017-Sep-13 14:30S 05°12' E 011°19'0 0.1
2017-Sep-13 14:00S 05°12' E 011°19'0 0.1
2017-Sep-13 13:30S 05°12' E 011°18'0 0.1
2017-Sep-13 13:00S 05°12' E 011°18'0 0.1
2017-Sep-13 12:30S 05°12' E 011°18'0 0.1
2017-Sep-13 12:00S 05°12' E 011°18'0 0.0
2017-Sep-13 11:30S 05°12' E 011°19'0 0.0
2017-Sep-13 11:00S 05°12' E 011°18'0 0.1
2017-Sep-13 10:30S 05°12' E 011°18'0 0.1
2017-Sep-13 10:00S 05°12' E 011°18'0 0.1
2017-Sep-13 09:30S 05°12' E 011°18'0 0.1
2017-Sep-13 09:00S 05°12' E 011°18'0 0.0
2017-Sep-13 08:30S 05°12' E 011°18'0 0.2
2017-Sep-13 08:01S 05°12' E 011°19'1 1.5
2017-Sep-13 07:30S 05°13' E 011°18'0 0.0
2017-Sep-13 06:57S 05°13' E 011°18'0 0.0
2017-Sep-13 06:30S 05°13' E 011°18'0 0.0
2017-Sep-13 06:01S 05°13' E 011°18'0 0.0
2017-Sep-13 05:30S 05°13' E 011°18'0 0.0
2017-Sep-13 05:00S 05°13' E 011°18'0 0.0
2017-Sep-13 04:30S 05°13' E 011°18'0 0.5
2017-Sep-13 04:00S 05°13' E 011°18'0 0.1
2017-Sep-13 03:30S 05°12' E 011°18'1 1.4
2017-Sep-13 03:01S 05°12' E 011°18'0 0.2
2017-Sep-13 02:30S 05°12' E 011°18'0 0.1
2017-Sep-13 02:00S 05°12' E 011°18'0 0.4
2017-Sep-13 01:31S 05°12' E 011°18'0 0.4
2017-Sep-13 01:00S 05°12' E 011°18'0 0.3
2017-Sep-13 00:30S 05°12' E 011°18'0 0.3
2017-Sep-13 00:00S 05°12' E 011°18'0 0.6
2017-Sep-12 23:30S 05°12' E 011°19'0 0.6
2017-Sep-12 23:00S 05°13' E 011°19'0 0.1
2017-Sep-12 22:31S 05°13' E 011°19'0 0.1
2017-Sep-12 22:00S 05°13' E 011°19'0 0.0
2017-Sep-12 21:30S 05°13' E 011°19'0 0.3
2017-Sep-12 21:00S 05°13' E 011°19'0 0.1
2017-Sep-12 20:30S 05°12' E 011°19'0 0.3
2017-Sep-12 20:00S 05°13' E 011°19'0 0.0
2017-Sep-12 19:30S 05°13' E 011°19'0 0.2
2017-Sep-12 19:00S 05°12' E 011°19'0 0.1
2017-Sep-12 18:30S 05°13' E 011°19'0 0.2
2017-Sep-12 18:00S 05°12' E 011°19'0 0.4
2017-Sep-12 17:30S 05°12' E 011°19'0 0.2
2017-Sep-12 17:00S 05°12' E 011°19'0 0.0
2017-Sep-12 16:30S 05°12' E 011°19'0 0.3
2017-Sep-12 16:00S 05°12' E 011°19'0 0.2
2017-Sep-12 15:30S 05°12' E 011°19'0 0.1
2017-Sep-12 15:00S 05°12' E 011°19'0 0.2
2017-Sep-12 14:30S 05°12' E 011°19'0 0.3
2017-Sep-12 14:00S 05°13' E 011°19'0 0.2
2017-Sep-12 13:30S 05°13' E 011°19'0 0.6
2017-Sep-12 13:01S 05°13' E 011°19'1 1.4
2017-Sep-12 12:30S 05°12' E 011°19'0 0.0
2017-Sep-12 12:00S 05°12' E 011°19'0 0.2
2017-Sep-12 11:30S 05°12' E 011°19'0 0.3
2017-Sep-12 11:00S 05°12' E 011°19'0 0.7
2017-Sep-12 10:30S 05°12' E 011°19'1 1.4
2017-Sep-12 10:00S 05°13' E 011°18'0 0.2
2017-Sep-12 09:30S 05°13' E 011°18'0 0.2
2017-Sep-12 08:57S 05°13' E 011°18'0 0.3
2017-Sep-12 08:30S 05°13' E 011°18'0 0.5
2017-Sep-12 08:00S 05°13' E 011°18'2 2.6
2017-Sep-12 07:25S 05°12' E 011°19'0 0.2
2017-Sep-12 07:00S 05°12' E 011°19'0 0.1
2017-Sep-12 06:30S 05°12' E 011°19'0 0.1
2017-Sep-12 06:00S 05°12' E 011°19'0 0.3
2017-Sep-12 05:30S 05°12' E 011°19'0 0.1
2017-Sep-12 05:00S 05°12' E 011°19'0 0.1
2017-Sep-12 04:30S 05°12' E 011°19'0 0.2
2017-Sep-12 04:00S 05°12' E 011°19'0 0.1
2017-Sep-12 03:30S 05°12' E 011°19'0 0.1
2017-Sep-12 03:00S 05°12' E 011°19'0 0.1
2017-Sep-12 02:30S 05°12' E 011°19'0 0.1
2017-Sep-12 02:00S 05°12' E 011°19'  
Track history (hours):
 
Tides and Currents Weather Stations Pressure Air Temp Water Temp Dewpoint Dewpoint Depression Visibility Wind Speed Wind Dir Waves Ship Positions

Posh Pelican

Last reported at 2017-Sep-22 01:31 UTC. Time now 2017-Sep-22 02:43 UTC.
Position S 04°55' E 011°34'.

Length 79 m; draft 5.6 m.

Type: Tug. MMSI: 563712000.

Date/timePositionNaut miles runAvg speedWind from/ knotsBaromVisibWave heightAir tempDewpointWater temp
2017-Sep-22 01:31S 04°55' E 011°34'0 7.1
2017-Sep-22 01:27S 04°56' E 011°34'3 7.2
2017-Sep-22 01:00S 04°58' E 011°32'4 7.4
2017-Sep-22 00:31S 05°02' E 011°30'4 7.4
2017-Sep-22 00:01S 05°05' E 011°29'4 7.4
2017-Sep-21 23:30S 05°08' E 011°27'4 7.2
2017-Sep-21 23:00S 05°12' E 011°26'3 6.9
2017-Sep-21 22:30S 05°15' E 011°25'3 5.7
2017-Sep-21 22:00S 05°17' E 011°23'0 0.3
2017-Sep-21 21:25S 05°17' E 011°23'0 0.0
2017-Sep-21 21:00S 05°17' E 011°23'0 0.0
2017-Sep-21 20:30S 05°17' E 011°23'0 0.0
2017-Sep-21 20:00S 05°17' E 011°23'0 0.4
2017-Sep-21 19:29S 05°17' E 011°23'0 0.0
2017-Sep-21 19:01S 05°17' E 011°23'1 2.8
2017-Sep-21 18:30S 05°17' E 011°22'3 6.4
2017-Sep-21 18:00S 05°15' E 011°20'3 5.6
2017-Sep-21 17:30S 05°13' E 011°17'0 0.3
2017-Sep-21 17:00S 05°13' E 011°17'0 0.1
2017-Sep-21 16:30S 05°13' E 011°17'0 0.1
2017-Sep-21 16:00S 05°13' E 011°17'0 0.1
2017-Sep-21 15:30S 05°13' E 011°17'0 0.1
2017-Sep-21 15:00S 05°13' E 011°17'0 0.1
2017-Sep-21 14:30S 05°13' E 011°17'0 0.1
2017-Sep-21 14:01S 05°13' E 011°17'0 0.1
2017-Sep-21 13:30S 05°13' E 011°17'0 0.4
2017-Sep-21 13:00S 05°13' E 011°17'0 0.3
2017-Sep-21 12:30S 05°13' E 011°17'0 0.1
2017-Sep-21 12:00S 05°13' E 011°17'0 0.2
2017-Sep-21 11:30S 05°13' E 011°17'0 0.2
2017-Sep-21 11:00S 05°13' E 011°17'0 0.3
2017-Sep-21 10:30S 05°13' E 011°17'0 0.3
2017-Sep-21 10:00S 05°13' E 011°17'0 0.1
2017-Sep-21 09:30S 05°13' E 011°17'0 0.1
2017-Sep-21 09:00S 05°13' E 011°17'0 0.2
2017-Sep-21 08:30S 05°13' E 011°17'0 0.2
2017-Sep-21 08:00S 05°13' E 011°17'0 0.1
2017-Sep-21 07:30S 05°14' E 011°17'0 0.1
2017-Sep-21 07:00S 05°14' E 011°17'0 0.1
2017-Sep-21 06:30S 05°14' E 011°17'0 0.1
2017-Sep-21 06:00S 05°14' E 011°17'0 0.1
2017-Sep-21 05:31S 05°14' E 011°17'0 0.4
2017-Sep-21 05:00S 05°14' E 011°17'0 0.3
2017-Sep-21 04:30S 05°14' E 011°18'0 0.1
2017-Sep-21 04:00S 05°14' E 011°18'0 0.1
2017-Sep-21 03:31S 05°14' E 011°18'0 0.1
2017-Sep-21 03:00S 05°14' E 011°18'0 0.1
2017-Sep-21 02:30S 05°13' E 011°18'0 0.1
2017-Sep-21 02:00S 05°13' E 011°18'0 0.1
2017-Sep-21 01:30S 05°13' E 011°18'0 0.1
2017-Sep-21 01:00S 05°13' E 011°18'0 0.1
2017-Sep-21 00:30S 05°13' E 011°18'0 0.1
2017-Sep-21 00:00S 05°13' E 011°18'0 0.1
2017-Sep-20 23:29S 05°13' E 011°18'0 0.1
2017-Sep-20 23:00S 05°13' E 011°18'0 0.1
2017-Sep-20 22:30S 05°13' E 011°18'0 0.1
2017-Sep-20 22:00S 05°13' E 011°18'0 0.1
2017-Sep-20 21:31S 05°13' E 011°18'0 0.1
2017-Sep-20 21:00S 05°13' E 011°18'0 0.1
2017-Sep-20 20:30S 05°14' E 011°18'0 0.0
2017-Sep-20 20:00S 05°13' E 011°18'0 0.1
2017-Sep-20 19:30S 05°14' E 011°18'0 0.3
2017-Sep-20 19:00S 05°14' E 011°18'0 0.3
2017-Sep-20 18:30S 05°14' E 011°17'0 0.3
2017-Sep-20 18:00S 05°14' E 011°17'0 0.1
2017-Sep-20 17:30S 05°14' E 011°17'0 0.5
2017-Sep-20 17:00S 05°14' E 011°18'0 0.1
2017-Sep-20 16:31S 05°14' E 011°18'0 0.1
2017-Sep-20 16:00S 05°14' E 011°18'0 0.1
2017-Sep-20 15:30S 05°14' E 011°17'0 0.3
2017-Sep-20 15:00S 05°14' E 011°17'0 0.2
2017-Sep-20 14:01S 05°13' E 011°17'0 0.1
2017-Sep-20 13:30S 05°13' E 011°17'0 0.3
2017-Sep-20 13:00S 05°13' E 011°17'0 0.2
2017-Sep-20 12:30S 05°14' E 011°17'0 0.2
2017-Sep-20 12:00S 05°14' E 011°17'0 0.1
2017-Sep-20 11:30S 05°14' E 011°17'0 0.6
2017-Sep-20 11:00S 05°13' E 011°17'0 0.6
2017-Sep-20 10:30S 05°13' E 011°17'0 0.6
2017-Sep-20 10:00S 05°13' E 011°17'0 0.4
2017-Sep-20 09:30S 05°14' E 011°17'0 0.2
2017-Sep-20 09:00S 05°14' E 011°17'0 0.2
2017-Sep-20 08:30S 05°14' E 011°17'0 0.1
2017-Sep-20 08:00S 05°14' E 011°17'0 0.1
2017-Sep-20 07:31S 05°14' E 011°17'0 0.1
2017-Sep-20 07:00S 05°14' E 011°17'0 0.2
2017-Sep-20 06:29S 05°14' E 011°17'0 0.2
2017-Sep-20 06:00S 05°14' E 011°17'0 0.1
2017-Sep-20 05:30S 05°14' E 011°17'0 0.1
2017-Sep-20 05:01S 05°14' E 011°17'0 0.2
2017-Sep-20 04:30S 05°14' E 011°18'0 0.2
2017-Sep-20 04:00S 05°14' E 011°18'0 0.2
2017-Sep-20 03:30S 05°14' E 011°18'0 0.3
2017-Sep-20 03:00S 05°14' E 011°18'0 0.2
2017-Sep-20 02:30S 05°14' E 011°18'0 0.3
2017-Sep-20 02:00S 05°14' E 011°18'0 0.3
2017-Sep-20 01:30S 05°14' E 011°18'0 0.2
2017-Sep-20 01:00S 05°14' E 011°18'0 0.1
2017-Sep-20 00:30S 05°13' E 011°18'0 0.1
2017-Sep-20 00:00S 05°13' E 011°18'0 0.0
2017-Sep-19 23:30S 05°13' E 011°18'0 0.3
2017-Sep-19 23:00S 05°13' E 011°17'0 0.3
2017-Sep-19 22:30S 05°13' E 011°17'0 0.1
2017-Sep-19 22:01S 05°13' E 011°17'0 0.2
2017-Sep-19 21:30S 05°13' E 011°17'0 0.1
2017-Sep-19 21:00S 05°13' E 011°18'0 0.1
2017-Sep-19 20:30S 05°13' E 011°18'0 0.1
2017-Sep-19 20:00S 05°13' E 011°18'0 0.1
2017-Sep-19 19:31S 05°13' E 011°18'0 0.9
2017-Sep-19 19:00S 05°13' E 011°18'0 0.3
2017-Sep-19 18:31S 05°13' E 011°18'0 0.1
2017-Sep-19 18:00S 05°13' E 011°18'0 0.5
2017-Sep-19 17:31S 05°13' E 011°18'0 0.8
2017-Sep-19 17:01S 05°12' E 011°18'0 0.4
2017-Sep-19 16:30S 05°12' E 011°18'0 0.2
2017-Sep-19 16:00S 05°12' E 011°18'0 0.9
2017-Sep-19 15:30S 05°12' E 011°18'0 0.7
2017-Sep-19 15:00S 05°12' E 011°19'0 0.1
2017-Sep-19 14:30S 05°12' E 011°19'1 1.8
2017-Sep-19 14:01S 05°12' E 011°18'0 0.7
2017-Sep-19 13:30S 05°12' E 011°18'0 0.8
2017-Sep-19 13:00S 05°12' E 011°19'0 0.3
2017-Sep-19 12:30S 05°12' E 011°19'1 2.2
2017-Sep-19 12:00S 05°12' E 011°18'0 0.9
2017-Sep-19 11:31S 05°12' E 011°18'0 0.7
2017-Sep-19 11:00S 05°12' E 011°18'0 0.1
2017-Sep-19 10:30S 05°12' E 011°18'0 0.1
2017-Sep-19 10:00S 05°12' E 011°18'0 0.0
2017-Sep-19 09:30S 05°12' E 011°18'0 0.2
2017-Sep-19 09:00S 05°12' E 011°18'0 0.2
2017-Sep-19 08:30S 05°12' E 011°18'0 0.2
2017-Sep-19 08:01S 05°12' E 011°18'0 0.1
2017-Sep-19 07:30S 05°12' E 011°18'0 0.3
2017-Sep-19 07:00S 05°12' E 011°19'2 3.7
2017-Sep-19 06:30S 05°13' E 011°17'0 0.5
2017-Sep-19 06:00S 05°13' E 011°17'0 0.2
2017-Sep-19 05:30S 05°13' E 011°17'0 0.1
2017-Sep-19 05:01S 05°13' E 011°17'0 0.1
2017-Sep-19 04:30S 05°13' E 011°17'0 0.2
2017-Sep-19 04:00S 05°13' E 011°17'0 0.2
2017-Sep-19 03:30S 05°13' E 011°17'0 0.1
2017-Sep-19 03:01S 05°13' E 011°17'0 0.2
2017-Sep-19 02:30S 05°13' E 011°17'0 0.4
2017-Sep-19 02:00S 05°13' E 011°17'0 0.5
2017-Sep-19 01:30S 05°13' E 011°17'0 0.3
2017-Sep-19 01:00S 05°13' E 011°17'0 0.6
2017-Sep-19 00:30S 05°14' E 011°18'0 0.5
2017-Sep-19 00:00S 05°14' E 011°18'0 0.1
2017-Sep-18 23:31S 05°14' E 011°18'0 0.1
2017-Sep-18 23:00S 05°14' E 011°18'0 0.3
2017-Sep-18 22:31S 05°14' E 011°18'0 0.8
2017-Sep-18 21:59S 05°13' E 011°18'0 1.1
2017-Sep-18 21:30S 05°13' E 011°19'4 6.9
2017-Sep-18 21:00S 05°14' E 011°22'3 6.5
2017-Sep-18 20:30S 05°14' E 011°26'2 3.3
2017-Sep-18 20:00S 05°13' E 011°27'0 0.5
2017-Sep-18 19:29S 05°13' E 011°27'0 0.5
2017-Sep-18 19:00S 05°13' E 011°27'0 0.5
2017-Sep-18 18:30S 05°13' E 011°27'0 0.6
2017-Sep-18 18:00S 05°14' E 011°27'0 0.7
2017-Sep-18 17:30S 05°14' E 011°27'0 0.6
2017-Sep-18 17:00S 05°14' E 011°27'0 0.6
2017-Sep-18 16:30S 05°15' E 011°27'0 0.6
2017-Sep-18 16:00S 05°15' E 011°27'0 0.6
2017-Sep-18 15:27S 05°15' E 011°27'0 1.0
2017-Sep-18 15:00S 05°15' E 011°27'4 7.2
2017-Sep-18 14:30S 05°14' E 011°23'4 8.2
2017-Sep-18 14:00S 05°13' E 011°19'1 2.5
2017-Sep-18 13:27S 05°13' E 011°18'0 0.1
2017-Sep-18 13:00S 05°13' E 011°18'0 0.0
2017-Sep-18 12:30S 05°13' E 011°18'0 0.0
2017-Sep-18 12:00S 05°13' E 011°18'0 0.0
2017-Sep-18 11:29S 05°13' E 011°18'0 0.0
2017-Sep-18 11:00S 05°13' E 011°18'0 0.0
2017-Sep-18 10:30S 05°13' E 011°18'0 0.0
2017-Sep-18 10:00S 05°13' E 011°18'0 0.0
2017-Sep-18 09:30S 05°13' E 011°18'0 0.0
2017-Sep-18 09:00S 05°13' E 011°18'0 0.0
2017-Sep-18 08:30S 05°13' E 011°18'0 0.2
2017-Sep-18 08:00S 05°13' E 011°18'0 0.6
2017-Sep-18 07:30S 05°13' E 011°18'1 1.9
2017-Sep-18 07:00S 05°13' E 011°19'0 0.7
2017-Sep-18 06:30S 05°13' E 011°19'0 0.1
2017-Sep-18 06:00S 05°14' E 011°19'0 0.1
2017-Sep-18 05:30S 05°14' E 011°19'0 0.2
2017-Sep-18 05:00S 05°14' E 011°19'0 0.1
2017-Sep-18 04:30S 05°14' E 011°19'0 0.2
2017-Sep-18 04:00S 05°14' E 011°19'0 0.3
2017-Sep-18 03:30S 05°13' E 011°19'0 0.5
2017-Sep-18 03:00S 05°13' E 011°19'0 0.1
2017-Sep-18 02:30S 05°13' E 011°19'0 0.2
2017-Sep-18 02:00S 05°13' E 011°19'0 0.1
2017-Sep-18 01:30S 05°13' E 011°19'0 0.1
2017-Sep-18 01:00S 05°13' E 011°19'0 0.2
2017-Sep-18 00:30S 05°13' E 011°19'0 0.0
2017-Sep-18 00:01S 05°13' E 011°19'0 0.0
2017-Sep-17 23:30S 05°13' E 011°19'0 0.3
2017-Sep-17 23:00S 05°13' E 011°19'0 0.2
2017-Sep-17 22:30S 05°13' E 011°19'0 0.1
2017-Sep-17 22:00S 05°13' E 011°19'0 0.1
2017-Sep-17 21:30S 05°13' E 011°19'0 0.2
2017-Sep-17 21:00S 05°13' E 011°19'0 0.1
2017-Sep-17 20:30S 05°13' E 011°19'0 0.3
2017-Sep-17 20:00S 05°13' E 011°19'0 0.2
2017-Sep-17 19:30S 05°13' E 011°19'0 0.1
2017-Sep-17 19:00S 05°13' E 011°19'0 0.1
2017-Sep-17 18:30S 05°13' E 011°19'0 0.1
2017-Sep-17 18:00S 05°13' E 011°19'0 0.1
2017-Sep-17 17:30S 05°13' E 011°19'1 1.5
2017-Sep-17 17:00S 05°12' E 011°18'0 0.8
2017-Sep-17 16:30S 05°13' E 011°18'0 0.1
2017-Sep-17 16:00S 05°13' E 011°18'0 0.0
2017-Sep-17 15:30S 05°13' E 011°18'0 0.6
2017-Sep-17 15:00S 05°12' E 011°18'1 1.7
2017-Sep-17 14:30S 05°12' E 011°19'0 0.2
2017-Sep-17 14:00S 05°12' E 011°19'0 0.4
2017-Sep-17 13:30S 05°13' E 011°19'2 4.7
2017-Sep-17 13:00S 05°14' E 011°21'3 6.4
2017-Sep-17 12:30S 05°16' E 011°23'1 1.8
2017-Sep-17 12:00S 05°17' E 011°24'0 0.0
2017-Sep-17 11:27S 05°17' E 011°24'0 0.8
2017-Sep-17 10:59S 05°17' E 011°23'0 0.0
2017-Sep-17 10:30S 05°17' E 011°23'0 0.0
2017-Sep-17 09:55S 05°17' E 011°23'0 0.0
2017-Sep-17 09:29S 05°17' E 011°23'0 0.0
2017-Sep-17 09:00S 05°17' E 011°23'0 0.1
2017-Sep-17 08:30S 05°17' E 011°23'0 0.0
2017-Sep-17 08:00S 05°17' E 011°23'0 0.1
2017-Sep-17 07:30S 05°17' E 011°23'0 0.2
2017-Sep-17 07:00S 05°17' E 011°23'1 1.7
2017-Sep-17 06:30S 05°17' E 011°24'0 0.7
2017-Sep-17 06:00S 05°17' E 011°24'0 0.6
2017-Sep-17 05:31S 05°17' E 011°24'1 1.0
2017-Sep-17 05:00S 05°17' E 011°24'3 5.9
2017-Sep-17 04:30S 05°15' E 011°22'3 6.3
2017-Sep-17 04:00S 05°13' E 011°19'1 2.3
2017-Sep-17 03:30S 05°13' E 011°18'0 0.1
2017-Sep-17 03:00S 05°13' E 011°18'0 0.1
2017-Sep-17 02:30S 05°13' E 011°18'0 0.3
2017-Sep-17 02:00S 05°13' E 011°18'0 0.3
2017-Sep-17 01:30S 05°12' E 011°18'1 2.1
2017-Sep-17 01:00S 05°11' E 011°18'4 7.1
2017-Sep-17 00:30S 05°09' E 011°20'4 7.7
2017-Sep-17 00:00S 05°06' E 011°23'4 7.7
2017-Sep-16 23:31S 05°03' E 011°26'3 0.2
2017-Sep-16 03:55S 05°00' E 011°28'3 7.6
2017-Sep-16 03:29S 05°03' E 011°26'4 7.5
2017-Sep-16 02:59S 05°06' E 011°23'4 7.4
2017-Sep-16 02:30S 05°09' E 011°21'4 7.3
2017-Sep-16 02:01S 05°12' E 011°19'1 1.5
2017-Sep-16 01:30S 05°12' E 011°19'0 0.2
2017-Sep-16 01:01S 05°12' E 011°19'0 0.6
2017-Sep-16 00:30S 05°12' E 011°19'0 0.2
2017-Sep-16 00:00S 05°12' E 011°19'0 0.2
2017-Sep-15 23:30S 05°12' E 011°19'0 0.1
2017-Sep-15 23:00S 05°12' E 011°19'0 0.2
2017-Sep-15 22:31S 05°12' E 011°19'0 0.0
2017-Sep-15 22:00S 05°12' E 011°19'0 0.1
2017-Sep-15 21:30S 05°12' E 011°19'0 0.0
2017-Sep-15 21:00S 05°12' E 011°19'0 0.2
2017-Sep-15 20:31S 05°12' E 011°19'0 0.3
2017-Sep-15 20:00S 05°12' E 011°19'0 0.3
2017-Sep-15 19:30S 05°12' E 011°19'0 0.2
2017-Sep-15 19:00S 05°12' E 011°19'0 0.0
2017-Sep-15 18:30S 05°12' E 011°19'0 0.1
2017-Sep-15 18:00S 05°12' E 011°19'0 0.0
2017-Sep-15 17:30S 05°12' E 011°19'0 0.1
2017-Sep-15 17:00S 05°12' E 011°19'0 0.0
2017-Sep-15 16:30S 05°12' E 011°19'0 0.1
2017-Sep-15 16:00S 05°12' E 011°19'0 0.1
2017-Sep-15 15:29S 05°12' E 011°19'0 0.2
2017-Sep-15 15:00S 05°12' E 011°19'0 0.1
2017-Sep-15 14:30S 05°12' E 011°19'0 0.1
2017-Sep-15 14:00S 05°12' E 011°18'0 0.0
2017-Sep-15 13:31S 05°12' E 011°18'0 0.1
2017-Sep-15 13:01S 05°12' E 011°18'0 0.3
2017-Sep-15 12:30S 05°12' E 011°18'0 0.1
2017-Sep-15 12:00S 05°12' E 011°18'0 0.3
2017-Sep-15 11:30S 05°12' E 011°19'0 0.1
2017-Sep-15 11:00S 05°12' E 011°19'0 0.2
2017-Sep-15 10:30S 05°12' E 011°19'0 0.2
2017-Sep-15 10:00S 05°12' E 011°19'0 0.3
2017-Sep-15 09:30S 05°12' E 011°19'0 0.2
2017-Sep-15 09:00S 05°12' E 011°19'0 0.3
2017-Sep-15 08:30S 05°12' E 011°19'0 0.2
2017-Sep-15 08:00S 05°12' E 011°19'0 0.2
2017-Sep-15 07:30S 05°12' E 011°19'0 0.2
2017-Sep-15 07:00S 05°12' E 011°18'0 0.2
2017-Sep-15 06:30S 05°12' E 011°18'0 0.2
2017-Sep-15 06:00S 05°12' E 011°18'0 0.0
2017-Sep-15 05:30S 05°12' E 011°18'0 0.1
2017-Sep-15 05:00S 05°12' E 011°18'0 0.2
2017-Sep-15 04:30S 05°12' E 011°18'0 0.2
2017-Sep-15 04:00S 05°12' E 011°18'0 0.1
2017-Sep-15 03:31S 05°12' E 011°18'0 0.0
2017-Sep-15 03:00S 05°12' E 011°18'0 0.1
2017-Sep-15 02:31S 05°12' E 011°18'0 0.1
2017-Sep-15 02:00S 05°12' E 011°18'0 0.0
2017-Sep-15 01:31S 05°12' E 011°18'0 0.1
2017-Sep-15 01:00S 05°12' E 011°18'0 0.1
2017-Sep-15 00:30S 05°12' E 011°18'0 0.1
2017-Sep-15 00:00S 05°12' E 011°18'0 0.1
2017-Sep-14 23:31S 05°12' E 011°18'0 0.0
2017-Sep-14 23:00S 05°12' E 011°18'0 0.2
2017-Sep-14 22:30S 05°12' E 011°18'0 0.3
2017-Sep-14 22:00S 05°12' E 011°18'0 0.4
2017-Sep-14 21:31S 05°12' E 011°18'0 0.2
2017-Sep-14 21:00S 05°12' E 011°18'0 0.1
2017-Sep-14 20:30S 05°12' E 011°18'0 0.3
2017-Sep-14 20:01S 05°12' E 011°18'0 0.3
2017-Sep-14 19:31S 05°12' E 011°18'0 0.2
2017-Sep-14 19:01S 05°12' E 011°18'0 0.5
2017-Sep-14 18:30S 05°12' E 011°18'0 0.3
2017-Sep-14 18:01S 05°12' E 011°18'0 0.4
2017-Sep-14 17:30S 05°12' E 011°18'0 0.3
2017-Sep-14 17:00S 05°12' E 011°18'0 0.4
2017-Sep-14 16:30S 05°12' E 011°18'1 1.1
2017-Sep-14 16:00S 05°13' E 011°18'0 0.0
2017-Sep-14 15:30S 05°13' E 011°18'0 0.6
2017-Sep-14 15:00S 05°12' E 011°18'0 0.8
2017-Sep-14 14:30S 05°12' E 011°18'0 0.1
2017-Sep-14 14:00S 05°12' E 011°18'0 0.1
2017-Sep-14 13:30S 05°12' E 011°19'0 0.1
2017-Sep-14 13:01S 05°12' E 011°19'0 0.1
2017-Sep-14 12:30S 05°12' E 011°19'0 0.1
2017-Sep-14 12:00S 05°12' E 011°19'0 0.2
2017-Sep-14 11:31S 05°12' E 011°19'0 0.2
2017-Sep-14 11:00S 05°12' E 011°19'0 0.1
2017-Sep-14 10:30S 05°12' E 011°19'0 0.2
2017-Sep-14 10:00S 05°12' E 011°19'0 0.1
2017-Sep-14 09:30S 05°12' E 011°19'0 0.1
2017-Sep-14 09:00S 05°12' E 011°19'0 0.2
2017-Sep-14 08:30S 05°12' E 011°19'0 0.1
2017-Sep-14 07:59S 05°12' E 011°19'0 0.2
2017-Sep-14 07:30S 05°12' E 011°19'0 0.3
2017-Sep-14 07:00S 05°12' E 011°19'0 0.2
2017-Sep-14 06:30S 05°13' E 011°19'0 0.2
2017-Sep-14 06:00S 05°13' E 011°19'0 0.3
2017-Sep-14 05:30S 05°13' E 011°19'0 0.6
2017-Sep-14 05:01S 05°13' E 011°19'0 0.9
2017-Sep-14 04:30S 05°13' E 011°19'0 0.8
2017-Sep-14 04:00S 05°14' E 011°18'0 0.1
2017-Sep-14 03:31S 05°14' E 011°18'0 0.2
2017-Sep-14 03:00S 05°14' E 011°18'0 0.3
2017-Sep-14 02:30S 05°14' E 011°18'0 0.6
2017-Sep-14 02:00S 05°13' E 011°18'0 0.7
2017-Sep-14 01:30S 05°13' E 011°18'0 0.8
2017-Sep-14 01:00S 05°13' E 011°19'0 0.4
2017-Sep-14 00:30S 05°13' E 011°19'0 0.2
2017-Sep-14 00:00S 05°13' E 011°19'0 0.1
2017-Sep-13 23:30S 05°13' E 011°19'0 0.1
2017-Sep-13 23:01S 05°13' E 011°19'0 0.3
2017-Sep-13 22:30S 05°13' E 011°19'0 0.1
2017-Sep-13 22:00S 05°12' E 011°19'0 0.1
2017-Sep-13 21:30S 05°12' E 011°19'0 0.1
2017-Sep-13 21:01S 05°12' E 011°19'0 0.2
2017-Sep-13 20:30S 05°12' E 011°19'0 0.2
2017-Sep-13 20:00S 05°12' E 011°19'0 0.1
2017-Sep-13 19:31S 05°12' E 011°19'0 0.4
2017-Sep-13 19:00S 05°12' E 011°19'0 0.4
2017-Sep-13 18:30S 05°12' E 011°18'0 0.1
2017-Sep-13 18:01S 05°12' E 011°18'0 0.3
2017-Sep-13 17:30S 05°12' E 011°18'0 0.2
2017-Sep-13 17:00S 05°12' E 011°18'0 0.2
2017-Sep-13 16:30S 05°12' E 011°18'0 0.1
2017-Sep-13 15:59S 05°12' E 011°18'0 0.1
2017-Sep-13 15:30S 05°12' E 011°18'0 0.1
2017-Sep-13 15:00S 05°12' E 011°19'0 0.0
2017-Sep-13 14:30S 05°12' E 011°19'0 0.1
2017-Sep-13 14:00S 05°12' E 011°19'0 0.1
2017-Sep-13 13:30S 05°12' E 011°18'0 0.1
2017-Sep-13 13:00S 05°12' E 011°18'0 0.1
2017-Sep-13 12:30S 05°12' E 011°18'0 0.1
2017-Sep-13 12:00S 05°12' E 011°18'0 0.0
2017-Sep-13 11:30S 05°12' E 011°19'0 0.0
2017-Sep-13 11:00S 05°12' E 011°18'0 0.1
2017-Sep-13 10:30S 05°12' E 011°18'0 0.1
2017-Sep-13 10:00S 05°12' E 011°18'0 0.1
2017-Sep-13 09:30S 05°12' E 011°18'0 0.1
2017-Sep-13 09:00S 05°12' E 011°18'0 0.0
2017-Sep-13 08:30S 05°12' E 011°18'0 0.2
2017-Sep-13 08:01S 05°12' E 011°19'1 1.5
2017-Sep-13 07:30S 05°13' E 011°18'0 0.0
2017-Sep-13 06:57S 05°13' E 011°18'0 0.0
2017-Sep-13 06:30S 05°13' E 011°18'0 0.0
2017-Sep-13 06:01S 05°13' E 011°18'0 0.0
2017-Sep-13 05:30S 05°13' E 011°18'0 0.0
2017-Sep-13 05:00S 05°13' E 011°18'0 0.0
2017-Sep-13 04:30S 05°13' E 011°18'0 0.5
2017-Sep-13 04:00S 05°13' E 011°18'0 0.1
2017-Sep-13 03:30S 05°12' E 011°18'1 1.4
2017-Sep-13 03:01S 05°12' E 011°18'0 0.2
2017-Sep-13 02:30S 05°12' E 011°18'0 0.1
2017-Sep-13 02:00S 05°12' E 011°18'0 0.4
2017-Sep-13 01:31S 05°12' E 011°18'0 0.4
2017-Sep-13 01:00S 05°12' E 011°18'0 0.3
2017-Sep-13 00:30S 05°12' E 011°18'0 0.3
2017-Sep-13 00:00S 05°12' E 011°18'0 0.6
2017-Sep-12 23:30S 05°12' E 011°19'0 0.6
2017-Sep-12 23:00S 05°13' E 011°19'0 0.1
2017-Sep-12 22:31S 05°13' E 011°19'0 0.1
2017-Sep-12 22:00S 05°13' E 011°19'0 0.0
2017-Sep-12 21:30S 05°13' E 011°19'0 0.3
2017-Sep-12 21:00S 05°13' E 011°19'0 0.1
2017-Sep-12 20:30S 05°12' E 011°19'0 0.3
2017-Sep-12 20:00S 05°13' E 011°19'0 0.0
2017-Sep-12 19:30S 05°13' E 011°19'0 0.2
2017-Sep-12 19:00S 05°12' E 011°19'0 0.1
2017-Sep-12 18:30S 05°13' E 011°19'0 0.2
2017-Sep-12 18:00S 05°12' E 011°19'0 0.4
2017-Sep-12 17:30S 05°12' E 011°19'0 0.2
2017-Sep-12 17:00S 05°12' E 011°19'0 0.0
2017-Sep-12 16:30S 05°12' E 011°19'0 0.3
2017-Sep-12 16:00S 05°12' E 011°19'0 0.2
2017-Sep-12 15:30S 05°12' E 011°19'0 0.1
2017-Sep-12 15:00S 05°12' E 011°19'0 0.2
2017-Sep-12 14:30S 05°12' E 011°19'0 0.3
2017-Sep-12 14:00S 05°13' E 011°19'0 0.2
2017-Sep-12 13:30S 05°13' E 011°19'0 0.6
2017-Sep-12 13:01S 05°13' E 011°19'1 1.4
2017-Sep-12 12:30S 05°12' E 011°19'0 0.0
2017-Sep-12 12:00S 05°12' E 011°19'0 0.2
2017-Sep-12 11:30S 05°12' E 011°19'0 0.3
2017-Sep-12 11:00S 05°12' E 011°19'0 0.7
2017-Sep-12 10:30S 05°12' E 011°19'1 1.4
2017-Sep-12 10:00S 05°13' E 011°18'0 0.2
2017-Sep-12 09:30S 05°13' E 011°18'0 0.2
2017-Sep-12 08:57S 05°13' E 011°18'0 0.3
2017-Sep-12 08:30S 05°13' E 011°18'0 0.5
2017-Sep-12 08:00S 05°13' E 011°18'2 2.6
2017-Sep-12 07:25S 05°12' E 011°19'0 0.2
2017-Sep-12 07:00S 05°12' E 011°19'0 0.1
2017-Sep-12 06:30S 05°12' E 011°19'0 0.1
2017-Sep-12 06:00S 05°12' E 011°19'0 0.3
2017-Sep-12 05:30S 05°12' E 011°19'0 0.1
2017-Sep-12 05:00S 05°12' E 011°19'0 0.1
2017-Sep-12 04:30S 05°12' E 011°19'0 0.2
2017-Sep-12 04:00S 05°12' E 011°19'0 0.1
2017-Sep-12 03:30S 05°12' E 011°19'0 0.1
2017-Sep-12 03:00S 05°12' E 011°19'0 0.1
2017-Sep-12 02:30S 05°12' E 011°19'0 0.1
2017-Sep-12 02:00S 05°12' E 011°19'  

Dump ship's entire track history